Time;durP1;ratioP1;P1;durP2;ratioP2;P2;SDS_P1;SDS_P2;PMS_P1;PMS_P2;Temp;Humidity;BMP_temperature;BMP_pressure;BME280_temperature;BME280_humidity;BME280_pressure;Samples;Min_cycle;Max_cycle;Signal;HPM_P1;HPM_P2
2023/06/13 03:59:12;;;;;;;10.88;3.40;;;;;;;14.13;49.33;100532.72;6076312;23;20082;-92
2023/06/13 04:02:45;;;;;;;14.55;3.80;;;;;;;14.22;48.77;100535.56;6080707;23;20026;-93
2023/06/13 04:05:16;;;;;;;6.93;3.75;;;;;;;14.31;48.73;100534.53;6105297;23;20018;-89
2023/06/13 04:07:44;;;;;;;11.30;4.20;;;;;;;14.32;50.83;100532.59;6107730;23;20021;-93
2023/06/13 04:10:13;;;;;;;16.13;4.18;;;;;;;14.36;48.63;100508.03;6091986;23;20022;-91
2023/06/13 04:12:43;;;;;;;13.10;3.28;;;;;;;14.56;49.40;100524.09;6136684;23;20494;-92
2023/06/13 04:15:36;;;;;;;9.63;3.67;;;;;;;14.64;48.21;100531.66;6120328;23;20041;-94
2023/06/13 04:18:03;;;;;;;6.15;2.97;;;;;;;14.50;46.71;100497.78;6073200;23;20014;-93
2023/06/13 04:21:18;;;;;;;9.00;3.03;;;;;;;14.59;46.82;100495.16;6127695;23;20048;-91
2023/06/13 04:23:59;;;;;;;6.75;3.20;;;;;;;14.74;46.92;100503.06;6124724;23;20026;-92
2023/06/13 04:26:45;;;;;;;9.93;3.20;;;;;;;14.80;47.47;100480.63;6123417;23;20104;-95
2023/06/13 04:29:13;;;;;;;10.77;3.25;;;;;;;15.09;46.49;100512.38;6115129;23;20018;-91
2023/06/13 04:31:40;;;;;;;6.43;3.10;;;;;;;15.06;46.19;100477.19;6074409;23;20038;-91
2023/06/13 04:34:07;;;;;;;5.55;3.08;;;;;;;15.16;45.12;100482.44;6117377;23;20054;-92
2023/06/13 04:36:35;;;;;;;6.93;3.30;;;;;;;15.49;45.89;100510.50;6084647;23;20042;-94
2023/06/13 04:39:08;;;;;;;7.43;2.50;;;;;;;15.69;45.67;100520.22;6042387;23;20026;-90
2023/06/13 04:41:43;;;;;;;6.80;2.75;;;;;;;15.27;44.65;100441.69;6056623;23;20014;-91
2023/06/13 04:47:33;;;;;;;9.23;3.03;;;;;;;15.79;43.31;100476.94;6086341;23;20027;-94
2023/06/13 04:49:59;;;;;;;18.65;3.00;;;;;;;15.90;43.02;100472.78;6090175;23;20026;-95
2023/06/13 04:53:30;;;;;;;6.53;2.42;;;;;;;16.11;42.31;100484.81;5996375;24;20024;-91
2023/06/13 04:56:28;;;;;;;5.78;2.47;;;;;;;16.43;42.27;100507.59;5978357;24;20028;-91
2023/06/13 04:59:00;;;;;;;34.70;3.65;;;;;;;16.13;41.91;100434.84;5980621;23;20076;-92
2023/06/13 05:05:20;;;;;;;5.32;3.00;;;;;;;16.54;40.82;100461.16;6102508;23;20464;-92
2023/06/13 05:08:49;;;;;;;11.30;3.03;;;;;;;16.81;41.47;100498.69;6081069;23;20032;-90
2023/06/13 05:11:15;;;;;;;9.07;2.75;;;;;;;16.82;40.19;100492.03;6054725;23;20108;-94
2023/06/13 05:13:41;;;;;;;8.18;2.42;;;;;;;16.73;39.42;100464.41;6058166;23;20022;-90
2023/06/13 05:16:35;;;;;;;11.27;2.85;;;;;;;17.08;39.24;100490.03;6052298;23;20563;-93
2023/06/13 05:19:05;;;;;;;8.93;2.55;;;;;;;17.11;39.49;100475.56;6080105;23;20023;-92
2023/06/13 05:21:33;;;;;;;11.95;2.50;;;;;;;17.01;39.96;100428.16;5994800;23;20083;-90
2023/06/13 05:24:00;;;;;;;8.13;2.35;;;;;;;17.50;38.64;100493.03;5991003;23;20591;-91
2023/06/13 05:27:22;;;;;;;9.60;2.30;;;;;;;17.59;38.58;100491.06;5984274;23;20023;-94
2023/06/13 05:29:55;;;;;;;7.93;2.60;;;;;;;17.08;38.01;100401.63;5994530;23;20155;-94
2023/06/13 05:32:21;;;;;;;14.63;2.50;;;;;;;17.17;37.85;100401.59;5993306;23;20455;-96
2023/06/13 05:34:47;;;;;;;38.42;3.53;;;;;;;17.12;36.17;100399.84;5996616;23;20079;-92
2023/06/13 05:38:09;;;;;;;9.05;2.20;;;;;;;17.68;36.17;100468.91;5925452;24;20033;-87
2023/06/13 05:40:39;;;;;;;18.13;2.90;;;;;;;17.79;37.42;100466.59;5929048;24;20029;-91
2023/06/13 05:43:25;;;;;;;5.90;2.55;;;;;;;17.65;37.48;100418.94;5907679;24;20021;-92
2023/06/13 05:46:06;;;;;;;18.33;3.05;;;;;;;18.00;37.63;100450.84;5872386;24;20030;-88
2023/06/13 05:48:41;;;;;;;6.13;2.67;;;;;;;18.07;35.46;100453.06;5871347;24;20017;-87
2023/06/13 05:51:09;;;;;;;14.75;2.38;;;;;;;18.03;35.19;100465.97;5829991;24;20014;-89
2023/06/13 05:53:35;;;;;;;6.47;2.30;;;;;;;18.12;35.49;100465.91;5895395;24;20029;-90
2023/06/13 05:56:01;;;;;;;7.10;2.17;;;;;;;17.89;35.49;100399.00;5932204;24;20021;-89
2023/06/13 05:58:27;;;;;;;7.57;2.43;;;;;;;18.43;35.64;100471.06;5933262;24;20024;-90
2023/06/13 06:00:57;;;;;;;17.67;2.50;;;;;;;18.29;36.78;100422.31;5909297;24;20013;-90
2023/06/13 06:03:29;;;;;;;4.88;2.58;;;;;;;18.59;36.05;100449.91;5922563;24;20020;-90
2023/06/13 06:05:56;;;;;;;20.88;3.20;;;;;;;18.53;34.40;100440.19;5955438;24;20028;-89
2023/06/13 06:08:22;;;;;;;20.83;2.93;;;;;;;18.66;35.15;100452.13;5963758;23;20027;-92
2023/06/13 06:10:48;;;;;;;23.42;3.30;;;;;;;18.68;33.74;100447.88;5990415;23;20107;-90
2023/06/13 06:13:14;;;;;;;7.00;2.25;;;;;;;18.65;34.92;100437.47;5986534;23;20027;-91
2023/06/13 06:15:40;;;;;;;12.90;2.73;;;;;;;18.84;34.88;100458.34;5987891;23;20023;-91
2023/06/13 06:18:06;;;;;;;6.07;2.28;;;;;;;18.84;34.07;100445.34;5985337;23;20027;-92
2023/06/13 06:20:33;;;;;;;8.30;2.60;;;;;;;18.86;34.41;100431.13;5988639;23;20462;-92
2023/06/13 06:22:59;;;;;;;4.40;2.40;;;;;;;18.98;34.47;100431.97;5990248;23;20022;-91
2023/06/13 06:25:51;;;;;;;9.00;3.07;;;;;;;19.20;34.66;100450.16;6098183;23;20015;-91
2023/06/13 06:28:23;;;;;;;8.32;2.00;;;;;;;19.08;34.15;100424.38;6072807;23;20022;-92
2023/06/13 06:30:50;;;;;;;14.90;2.70;;;;;;;19.16;33.23;100429.00;6057060;23;20018;-96
2023/06/13 06:33:20;;;;;;;6.37;2.20;;;;;;;19.21;33.68;100426.84;6030923;23;20026;-93
2023/06/13 06:35:47;;;;;;;5.25;2.40;;;;;;;19.28;34.85;100417.13;6079392;23;20273;-92
2023/06/13 06:38:13;;;;;;;11.05;2.95;;;;;;;19.47;33.43;100434.84;6057453;23;20014;-93
2023/06/13 06:40:39;;;;;;;19.27;2.90;;;;;;;19.08;33.36;100368.94;6056139;23;20025;-94
2023/06/13 06:43:23;;;;;;;9.57;2.47;;;;;;;19.46;33.55;100435.97;6003224;23;2224248;-95
2023/06/13 06:45:56;;;;;;;11.38;2.60;;;;;;;19.19;33.66;100381.19;6154055;23;20016;-96
2023/06/13 06:48:23;;;;;;;19.98;2.63;;;;;;;19.47;33.76;100422.94;6147093;23;20017;-94
2023/06/13 06:59:00;;;;;;;9.20;2.63;;;;;;;18.85;32.55;100358.28;6193917;23;19923;-95
2023/06/13 07:01:44;;;;;;;17.08;2.65;;;;;;;19.48;33.37;100433.66;6061423;23;20030;-95
2023/06/13 07:04:17;;;;;;;5.28;2.45;;;;;;;19.16;34.06;100362.47;6062088;23;20213;-94
2023/06/13 07:06:46;;;;;;;37.90;3.40;;;;;;;19.29;31.98;100408.47;6080138;23;20026;-92
2023/06/13 07:09:20;;;;;;;6.10;2.50;;;;;;;19.45;32.35;100428.81;6049696;23;20078;-90
2023/06/13 07:11:46;;;;;;;11.27;2.75;;;;;;;19.44;32.44;100429.16;6098072;23;20178;-90
2023/06/13 07:17:30;;;;;;;5.70;2.30;;;;;;;19.55;32.38;100391.50;6051007;23;20033;-88
2023/06/13 07:20:31;;;;;;;25.88;3.20;;;;;;;19.92;32.70;100435.88;6046825;23;20019;-93
2023/06/13 07:22:57;;;;;;;13.32;2.38;;;;;;;19.69;32.46;100372.53;6074486;23;20018;-94
2023/06/13 07:26:01;;;;;;;13.90;2.75;;;;;;;19.74;31.71;100365.16;6074209;23;20149;-93
2023/06/13 07:28:27;;;;;;;7.18;2.10;;;;;;;19.92;32.15;100386.72;6026114;23;20026;-89
2023/06/13 07:30:53;;;;;;;;;;;;;;;20.21;31.97;100412.59;6025207;23;20038;-92
2023/06/13 07:33:21;;;;;;;3.90;2.30;;;;;;;20.21;32.15;100397.91;6051003;23;20347;-92
2023/06/13 07:35:52;;;;;;;12.15;2.70;;;;;;;20.15;31.20;100381.47;6046660;23;20018;-92
2023/06/13 07:38:20;;;;;;;27.50;3.15;;;;;;;20.15;32.00;100375.94;6046209;23;20025;-91
2023/06/13 07:40:52;;;;;;;4.82;2.78;;;;;;;20.25;31.52;100398.81;6038467;23;20061;-86
2023/06/13 07:43:18;;;;;;;9.95;4.30;;;;;;;20.21;31.66;100395.13;6097551;23;20060;-92
2023/06/13 07:45:46;;;;;;;18.05;3.22;;;;;;;19.91;30.32;100379.56;6052524;23;20491;-92
2023/06/13 07:48:13;;;;;;;10.13;2.80;;;;;;;19.92;30.67;100372.84;6152703;23;20092;-87
2023/06/13 07:50:41;;;;;;;5.75;2.70;;;;;;;19.94;30.91;100362.22;6160992;23;20075;-89
2023/06/13 07:53:10;;;;;;;5.88;2.97;;;;;;;20.02;31.79;100365.22;6115308;23;20548;-90
2023/06/13 07:55:40;;;;;;;7.22;2.63;;;;;;;20.39;31.69;100400.03;6117322;23;20035;-89
2023/06/13 07:58:06;;;;;;;13.50;2.67;;;;;;;20.20;31.92;100349.91;6113738;23;20103;-88
2023/06/13 08:00:32;;;;;;;6.57;2.53;;;;;;;20.41;31.02;100378.28;6136859;23;20017;-87
2023/06/13 08:02:58;;;;;;;10.27;2.50;;;;;;;20.60;29.88;100394.31;6136635;23;20253;-87
2023/06/13 08:05:27;;;;;;;40.10;3.57;;;;;;;20.16;30.64;100319.25;6135813;23;20089;-91
2023/06/13 08:07:54;;;;;;;9.20;2.78;;;;;;;20.61;30.29;100372.88;6164499;23;20017;-93
2023/06/13 08:10:54;;;;;;;16.23;3.15;;;;;;;20.79;30.93;100393.63;6149997;23;20332;-93
2023/06/13 08:13:20;;;;;;;9.23;2.80;;;;;;;20.51;30.83;100345.63;6116412;23;20021;-91
2023/06/13 08:15:46;;;;;;;15.95;2.85;;;;;;;20.57;29.93;100338.66;6138864;23;20029;-93
2023/06/13 08:18:37;;;;;;;6.57;2.67;;;;;;;20.82;30.18;100373.44;6171022;23;20548;-90
2023/06/13 08:21:06;;;;;;;9.90;2.70;;;;;;;20.85;31.25;100350.50;6141138;23;20021;-92
2023/06/13 08:23:33;;;;;;;11.52;2.90;;;;;;;20.96;30.97;100375.00;6118906;23;20084;-92
2023/06/13 08:25:59;;;;;;;6.57;2.75;;;;;;;20.63;30.47;100321.38;6170332;23;20021;-90
2023/06/13 08:28:26;;;;;;;14.93;2.90;;;;;;;21.10;30.50;100375.38;6145932;23;20013;-90
2023/06/13 08:30:52;;;;;;;;;;;;;;;21.19;31.52;100366.84;6121750;23;20256;-89
2023/06/13 08:33:21;;;;;;;7.72;2.65;;;;;;;20.88;30.02;100310.88;6139530;23;19986;-87
2023/06/13 08:35:48;;;;;;;32.60;4.22;;;;;;;20.97;30.17;100340.50;6143097;23;20089;-91
2023/06/13 08:38:15;;;;;;;16.60;2.85;;;;;;;21.05;29.75;100345.84;6113817;23;20025;-91
2023/06/13 08:40:41;;;;;;;11.77;3.55;;;;;;;20.93;30.63;100307.03;6166311;23;20435;-88
2023/06/13 08:43:08;;;;;;;7.68;3.05;;;;;;;21.31;30.20;100341.72;6188590;23;20012;-88
2023/06/13 08:45:35;;;;;;;9.55;2.72;;;;;;;21.41;29.47;100357.09;6186973;23;20021;-89
2023/06/13 08:48:02;;;;;;;14.73;2.75;;;;;;;21.23;30.50;100318.50;6141270;23;20021;-89
2023/06/13 08:50:33;;;;;;;10.50;3.42;;;;;;;21.25;30.60;100307.00;6135255;23;20017;-87
2023/06/13 08:53:00;;;;;;;14.60;2.78;;;;;;;21.34;30.97;100302.91;6187284;23;20032;-87
2023/06/13 08:55:32;;;;;;;5.30;2.70;;;;;;;21.66;31.08;100327.09;6109810;23;20043;-87
2023/06/13 08:58:04;;;;;;;9.50;3.17;;;;;;;21.56;30.96;100306.19;6161492;23;20044;-91
2023/06/13 09:00:35;;;;;;;31.92;5.00;;;;;;;21.50;29.27;100305.66;6166719;23;20021;-90
2023/06/13 09:03:03;;;;;;;22.13;4.15;;;;;;;21.18;29.77;100249.25;6139302;23;20017;-90
2023/06/13 09:05:30;;;;;;;11.98;3.03;;;;;;;21.42;31.88;100272.47;6168472;23;20020;-90
2023/06/13 09:07:59;;;;;;;4.90;2.50;;;;;;;21.67;30.54;100265.47;6115630;23;20033;-88
2023/06/13 09:10:30;;;;;;;11.38;3.13;;;;;;;22.02;29.96;100311.97;6115684;23;20021;-92
2023/06/13 09:13:12;;;;;;;8.43;2.78;;;;;;;21.73;29.36;100258.47;6166547;23;20079;-90
2023/06/13 09:15:42;;;;;;;7.35;2.70;;;;;;;22.04;29.59;100312.38;6140738;23;20016;-89
2023/06/13 09:18:11;;;;;;;9.77;3.25;;;;;;;21.97;29.03;100289.97;6145510;23;20021;-90
2023/06/13 09:20:37;;;;;;;8.88;2.75;;;;;;;21.65;28.66;100242.75;6163133;23;20044;-87
2023/06/13 09:23:13;;;;;;;;;;;;;;;22.10;29.17;100291.44;6160111;23;20020;-89
2023/06/13 09:25:46;;;;;;;7.78;2.80;;;;;;;21.97;29.01;100273.25;6135821;23;19947;-90
2023/06/13 09:28:37;;;;;;;8.43;2.83;;;;;;;22.19;28.53;100294.84;6138773;23;20433;-88
2023/06/13 09:31:03;;;;;;;17.63;3.50;;;;;;;22.14;29.33;100275.59;6186846;23;20021;-89
2023/06/13 09:33:30;;;;;;;11.20;3.05;;;;;;;22.01;29.08;100235.16;6186156;23;20689;-83
2023/06/13 09:35:56;;;;;;;6.85;3.35;;;;;;;21.85;28.40;100218.53;6192366;23;20047;-93
2023/06/13 09:38:23;;;;;;;11.48;2.80;;;;;;;22.32;29.26;100286.28;6095058;23;20021;-86
2023/06/13 09:41:01;;;;;;;12.23;2.90;;;;;;;22.09;28.57;100247.25;6118003;23;20237;-88
2023/06/13 09:44:04;;;;;;;5.40;2.78;;;;;;;22.15;27.81;100231.84;6148248;23;20024;-90
2023/06/13 09:46:35;;;;;;;6.90;2.88;;;;;;;22.40;27.49;100265.78;6114836;23;20027;-89
2023/06/13 09:49:06;;;;;;;19.23;3.88;;;;;;;22.10;28.18;100215.44;6095487;23;20032;-93
2023/06/13 09:51:52;;;;;;;12.48;3.33;;;;;;;22.08;28.79;100195.50;6146372;23;20016;-93
2023/06/13 09:54:24;;;;;;;6.85;3.20;;;;;;;22.44;27.91;100228.44;6122287;23;20027;-93
2023/06/13 09:57:02;;;;;;;9.68;2.90;;;;;;;22.16;28.26;100169.44;6142294;23;20024;-93
2023/06/13 09:59:28;;;;;;;10.32;2.70;;;;;;;22.76;27.61;100253.28;6145993;23;20017;-90
2023/06/13 10:01:55;;;;;;;9.07;3.20;;;;;;;22.51;29.32;100222.97;6143671;23;20040;-88
2023/06/13 10:04:28;;;;;;;8.85;3.00;;;;;;;22.92;28.90;100265.09;6167616;23;20032;-93
2023/06/13 10:06:54;;;;;;;8.45;3.38;;;;;;;22.75;28.13;100232.97;6166623;23;20627;-92
2023/06/13 10:09:23;;;;;;;10.52;3.00;;;;;;;22.73;27.97;100226.94;6139524;23;20095;-91
2023/06/13 10:11:53;;;;;;;34.25;3.88;;;;;;;23.06;28.44;100250.59;6193319;23;20017;-94
2023/06/13 10:15:25;;;;;;;8.70;3.10;;;;;;;23.14;28.42;100238.34;6116605;23;20344;-93
2023/06/13 10:18:48;;;;;;;10.73;3.08;;;;;;;23.38;27.75;100236.34;6143017;23;20399;-92
2023/06/13 10:21:55;;;;;;;5.30;2.85;;;;;;;23.10;27.89;100198.47;6140180;23;20439;-88
2023/06/13 10:24:48;;;;;;;10.23;3.00;;;;;;;23.15;26.50;100242.78;6170022;23;20084;-94
2023/06/13 10:27:17;;;;;;;24.30;3.65;;;;;;;22.93;27.57;100226.88;6147346;23;20024;-90
2023/06/13 10:38:33;;;;;;;11.23;3.60;;;;;;;22.90;28.10;100143.97;6157089;23;20017;-88
2023/06/13 10:44:38;;;;;;;11.27;3.67;;;;;;;23.44;27.39;100195.72;6141499;23;20017;-91
2023/06/13 11:02:22;;;;;;;7.85;3.70;;;;;;;24.35;26.06;100188.00;6197777;23;20385;-91
2023/06/13 11:05:01;;;;;;;10.98;3.40;;;;;;;23.97;26.89;100136.16;6172005;23;20112;-91
2023/06/13 11:08:15;;;;;;;9.18;3.55;;;;;;;24.04;27.72;100144.59;6098929;23;20038;-93
2023/06/13 11:10:46;;;;;;;12.70;3.38;;;;;;;24.39;26.83;100164.47;6051934;23;20058;-93
2023/06/13 11:13:21;;;;;;;27.83;4.43;;;;;;;23.85;26.45;100086.97;6164478;23;20042;-88
2023/06/13 11:15:53;;;;;;;8.70;3.47;;;;;;;24.05;25.88;100116.28;6192155;23;20078;-91
2023/06/13 11:18:20;;;;;;;27.88;4.47;;;;;;;24.37;26.61;100152.91;6215297;23;20078;-86
2023/06/13 11:21:06;;;;;;;14.43;3.50;;;;;;;24.51;26.45;100135.47;6216482;23;20055;-91
2023/06/13 11:23:32;;;;;;;20.05;4.15;;;;;;;24.66;26.41;100139.16;6167832;23;20394;-93
2023/06/13 11:26:46;;;;;;;;;;;;;;;;;;;;;
2023/06/13 11:29:51;;;;;;;26.98;4.65;;;;;;;24.51;26.36;100127.09;6066009;23;20538;-92
2023/06/13 11:33:23;;;;;;;19.23;3.95;;;;;;;24.02;24.02;100066.78;6018979;23;20611;-90
2023/06/13 11:42:28;;;;;;;20.42;4.15;;;;;;;24.43;25.80;100079.91;5982028;24;20027;-89
2023/06/13 11:44:56;;;;;;;14.77;4.07;;;;;;;24.45;25.62;100103.47;5960660;23;20497;-88
2023/06/13 11:47:26;;;;;;;8.13;3.30;;;;;;;24.31;24.46;100087.38;6033543;23;20535;-92
2023/06/13 11:49:56;;;;;;;23.45;6.03;;;;;;;24.49;23.78;100128.66;6146629;23;20011;-90
2023/06/13 11:52:23;;;;;;;17.35;4.40;;;;;;;24.18;23.93;100085.28;6196113;23;20020;-91
2023/06/13 11:54:54;;;;;;;21.77;4.35;;;;;;;24.57;25.65;100122.75;6117081;23;20021;-94
2023/06/13 11:57:41;;;;;;;15.88;3.67;;;;;;;23.95;24.54;100030.41;6195880;23;20047;-93
2023/06/13 12:00:08;;;;;;;19.40;5.65;;;;;;;24.46;25.04;100098.69;6214282;23;20493;-85
2023/06/13 12:02:35;;;;;;;19.38;5.55;;;;;;;24.44;24.50;100071.13;6187508;23;20017;-88
2023/06/13 12:05:07;;;;;;;18.27;4.93;;;;;;;24.77;25.02;100095.31;6164373;23;20611;-92
2023/06/13 12:07:54;;;;;;;15.68;5.72;;;;;;;24.79;24.40;100108.91;6173569;23;20068;-92
2023/06/13 12:10:33;;;;;;;10.48;4.38;;;;;;;24.44;25.08;100026.41;6171362;23;20012;-90
2023/06/13 12:13:25;;;;;;;9.25;3.78;;;;;;;25.11;25.69;100102.69;6143877;23;20012;-91
2023/06/13 12:15:56;;;;;;;29.60;4.35;;;;;;;24.89;25.69;100046.63;6143051;23;20020;-88
2023/06/13 12:18:22;;;;;;;13.27;3.70;;;;;;;25.40;25.29;100095.25;6218580;23;20013;-93
2023/06/13 12:20:51;;;;;;;17.05;9.15;;;;;;;25.55;25.54;100069.66;6169734;23;20218;-87
2023/06/13 12:23:37;;;;;;;7.90;3.60;;;;;;;25.94;23.71;100107.41;6221813;23;20016;-89
2023/06/13 12:26:04;;;;;;;16.10;3.80;;;;;;;25.70;23.90;100050.13;6093867;23;20026;-87
2023/06/13 12:28:33;;;;;;;14.18;4.35;;;;;;;25.76;23.72;100090.50;6071301;23;20413;-87
2023/06/13 12:31:07;;;;;;;21.08;4.07;;;;;;;25.65;23.67;100075.69;6094117;23;20018;-85
2023/06/13 12:33:36;;;;;;;11.30;3.88;;;;;;;25.67;24.57;100090.91;6094338;23;20022;-88
2023/06/13 12:36:09;;;;;;;11.95;3.42;;;;;;;25.66;24.00;100088.50;6094831;23;20043;-89
2023/06/13 12:38:38;;;;;;;7.75;3.40;;;;;;;25.88;23.95;100067.75;6092095;23;20085;-87
2023/06/13 12:41:13;;;;;;;19.42;4.15;;;;;;;25.88;23.27;100058.56;6091632;23;20114;-92
2023/06/13 12:43:42;;;;;;;24.80;4.13;;;;;;;25.71;24.66;100057.31;6095122;23;20026;-87
2023/06/13 12:46:15;;;;;;;21.85;4.93;;;;;;;25.54;23.57;100065.28;6071389;23;20044;-86
2023/06/13 12:48:43;;;;;;;29.58;4.72;;;;;;;25.29;23.41;100050.41;6073039;23;20030;-91
2023/06/13 12:51:25;;;;;;;31.67;4.22;;;;;;;25.12;24.61;100046.34;6097358;23;20018;-89
2023/06/13 12:53:52;;;;;;;56.42;5.65;;;;;;;25.04;24.12;100041.91;6050105;23;20018;-86
2023/06/13 12:56:19;;;;;;;47.67;4.50;;;;;;;25.00;24.59;100063.44;6092986;23;20014;-84
2023/06/13 12:58:59;;;;;;;15.95;3.83;;;;;;;25.07;24.77;100063.50;6094591;23;20018;-88
2023/06/13 13:01:25;;;;;;;9.68;3.65;;;;;;;25.01;24.18;100054.69;6093321;23;20117;-89
2023/06/13 13:03:51;;;;;;;11.73;4.70;;;;;;;24.80;23.51;100043.38;6162572;23;20136;-86
2023/06/13 13:06:24;;;;;;;14.90;4.28;;;;;;;24.79;24.96;100023.00;6136548;23;20103;-84
2023/06/13 13:08:50;;;;;;;19.08;3.80;;;;;;;24.90;24.50;100045.44;6188692;23;20023;-92
2023/06/13 13:11:16;;;;;;;31.42;5.75;;;;;;;24.82;24.40;100024.22;6187303;23;20017;-86
2023/06/13 13:13:45;;;;;;;26.25;5.90;;;;;;;24.92;25.17;100015.06;6215017;23;20032;-83
2023/06/13 13:16:12;;;;;;;48.97;8.18;;;;;;;24.87;25.37;100018.25;6186450;23;20086;-85
2023/06/13 13:18:38;;;;;;;;;;;;;;;25.17;25.75;100050.78;6163925;23;20044;-85
2023/06/13 13:21:05;;;;;;;15.73;4.07;;;;;;;25.25;25.34;100025.22;6217860;23;19966;-92
2023/06/13 13:23:32;;;;;;;46.15;5.30;;;;;;;25.14;24.72;99967.63;6165265;23;20017;-88
2023/06/13 13:25:59;;;;;;;18.55;4.55;;;;;;;25.80;24.72;100040.13;6194561;23;20032;-92
2023/06/13 13:28:26;;;;;;;11.63;3.50;;;;;;;25.82;24.59;100043.34;6188873;23;20040;-91
2023/06/13 13:30:55;;;;;;;6.32;3.55;;;;;;;25.30;24.35;99994.06;6189394;23;20047;-91
2023/06/13 13:33:24;;;;;;;27.50;3.92;;;;;;;25.50;24.63;100007.69;6193658;23;20001;-90
2023/06/13 13:35:51;;;;;;;10.10;3.88;;;;;;;25.54;24.29;99994.50;6191382;23;20016;-93
2023/06/13 13:38:19;;;;;;;15.57;4.30;;;;;;;25.43;24.40;100004.84;6162415;23;20021;-91
2023/06/13 13:40:58;;;;;;;26.38;4.90;;;;;;;25.44;23.90;100007.28;6140056;23;20017;-90
2023/06/13 13:43:24;;;;;;;15.20;4.22;;;;;;;25.30;23.85;99971.66;6164042;23;20099;-85
2023/06/13 13:45:53;;;;;;;8.13;3.90;;;;;;;25.14;24.52;99973.22;6187912;23;20020;-89
2023/06/13 13:48:19;;;;;;;16.48;4.30;;;;;;;25.25;24.47;100010.41;6216484;23;20578;-87
2023/06/13 13:50:48;;;;;;;14.77;5.82;;;;;;;25.20;24.57;99997.63;6188814;23;20091;-88
2023/06/13 13:53:15;;;;;;;14.68;3.90;;;;;;;25.26;24.41;100017.59;6166572;23;20012;-92
2023/06/13 14:00:33;;;;;;;8.52;3.90;;;;;;;25.41;24.70;100015.66;6114120;23;20037;31
2023/06/13 14:03:03;;;;;;;21.67;4.63;;;;;;;24.93;24.66;99949.53;6108809;23;20136;-92
2023/06/13 14:06:24;;;;;;;12.32;4.30;;;;;;;25.38;23.52;100008.06;6141134;23;20025;-94
2023/06/13 14:08:51;;;;;;;26.88;4.65;;;;;;;25.30;23.28;100019.25;6160898;23;20420;-91
2023/06/13 14:11:17;;;;;;;11.90;4.00;;;;;;;25.07;24.36;99988.75;6111242;23;20106;-93
2023/06/13 14:13:43;;;;;;;12.13;4.18;;;;;;;25.14;25.03;99962.84;6130736;23;20013;-87
2023/06/13 14:16:13;;;;;;;11.75;4.10;;;;;;;25.16;23.56;99951.22;6158240;23;20018;-93
2023/06/13 14:18:39;;;;;;;26.45;4.28;;;;;;;25.06;23.23;99914.41;6158804;23;20017;-90
2023/06/13 14:21:18;;;;;;;25.15;4.80;;;;;;;25.55;24.16;99985.69;6133347;23;20100;-90
2023/06/13 14:23:44;;;;;;;28.67;4.85;;;;;;;25.85;24.49;99995.72;6155306;23;20024;-90
2023/06/13 14:26:10;;;;;;;17.77;4.57;;;;;;;25.37;23.30;99923.28;6178457;23;20041;-90
2023/06/13 14:28:42;;;;;;;6.28;4.20;;;;;;;25.72;23.22;99963.69;6134953;23;20017;-90
2023/06/13 14:31:21;;;;;;;12.85;3.35;;;;;;;25.83;23.14;100000.13;6157252;23;20463;-89
2023/06/13 14:34:06;;;;;;;12.95;4.05;;;;;;;25.46;24.21;99954.50;6154711;23;20039;-91
2023/06/13 14:36:34;;;;;;;9.55;4.10;;;;;;;25.25;24.82;99909.69;6130717;23;20017;-88
2023/06/13 14:39:05;;;;;;;6.75;3.95;;;;;;;25.37;23.66;99920.50;6125884;23;20356;-90
2023/06/13 14:42:04;;;;;;;11.18;3.53;;;;;;;25.76;23.37;99990.50;6107196;23;20028;-89
2023/06/13 14:44:30;;;;;;;11.80;3.75;;;;;;;25.91;24.24;99998.94;6159658;23;20356;-89
2023/06/13 14:46:59;;;;;;;23.98;4.85;;;;;;;25.77;23.22;99963.31;6155114;23;20017;-91
2023/06/13 14:50:33;;;;;;;26.30;5.15;;;;;;;26.05;23.41;99998.13;6153819;23;20026;-89
2023/06/13 14:53:26;;;;;;;18.58;4.65;;;;;;;25.92;23.27;99997.72;6137351;23;20021;-88
2023/06/13 15:07:00;;;;;;;19.40;5.18;;;;;;;25.85;22.74;99958.53;6184067;23;20033;-91
2023/06/13 15:09:41;;;;;;;10.43;3.53;;;;;;;25.70;22.58;99960.50;6109501;23;20362;-91
2023/06/13 15:12:15;;;;;;;15.55;4.25;;;;;;;25.62;23.21;99950.50;6110444;23;20041;-92
2023/06/13 15:14:44;;;;;;;51.10;5.15;;;;;;;25.50;23.33;99948.91;6136346;23;20378;-91
2023/06/13 15:21:41;;;;;;;41.80;5.60;;;;;;;25.49;24.38;99967.66;6141400;23;20021;-93
2023/06/13 15:24:21;;;;;;;6.25;3.90;;;;;;;25.62;24.06;99989.69;6137964;23;20064;-90
2023/06/13 15:27:06;;;;;;;27.95;5.50;;;;;;;24.96;23.45;99920.78;6140355;23;20040;-93
2023/06/13 15:29:59;;;;;;;14.00;4.20;;;;;;;25.20;23.19;99980.84;6161071;23;20021;-91
2023/06/13 15:32:51;;;;;;;14.00;4.85;;;;;;;25.28;23.62;99993.63;6139384;23;20017;-91
2023/06/13 15:36:14;;;;;;;13.38;4.30;;;;;;;25.36;23.40;99982.44;6153188;23;20367;-90
2023/06/13 15:39:07;;;;;;;16.38;3.83;;;;;;;25.28;24.63;99992.84;6139425;23;20041;-92
2023/06/13 15:41:36;;;;;;;15.43;4.32;;;;;;;24.88;24.62;99927.56;6110024;23;20032;-91
2023/06/13 15:44:35;;;;;;;14.35;3.78;;;;;;;24.90;25.11;99936.38;6131748;23;20109;-93
2023/06/13 15:47:11;;;;;;;11.38;3.95;;;;;;;24.63;24.48;99913.50;6096098;23;20186;-92
2023/06/13 15:50:16;;;;;;;11.63;4.55;;;;;;;24.24;25.15;99907.69;6050796;23;20022;-91
2023/06/13 15:56:01;;;;;;;17.33;4.97;;;;;;;24.38;26.47;99941.31;5950635;23;20492;-89
2023/06/13 15:58:33;;;;;;;24.40;10.52;;;;;;;24.06;26.14;99911.19;5957840;23;20023;-90
2023/06/13 16:01:10;;;;;;;11.00;5.38;;;;;;;23.80;25.13;99912.22;5963241;23;20370;-91
2023/06/13 16:03:47;;;;;;;24.42;6.25;;;;;;;23.80;25.59;99911.41;5985394;23;20023;-89
2023/06/13 16:06:14;;;;;;;29.10;5.65;;;;;;;23.90;25.61;99931.03;5938774;23;20023;-90
2023/06/13 16:13:09;;;;;;;18.02;5.65;;;;;;;23.83;26.42;99988.81;6096312;23;20022;-91
2023/06/13 16:16:05;;;;;;;19.08;4.40;;;;;;;23.80;27.76;99984.81;6124589;23;20045;-90
2023/06/13 16:18:37;;;;;;;11.77;3.50;;;;;;;23.46;27.17;99970.13;6100378;23;20029;-90
2023/06/13 16:25:00;;;;;;;9.55;3.80;;;;;;;22.97;27.63;99926.59;6153399;23;20116;-92
2023/06/13 16:27:28;;;;;;;10.70;3.50;;;;;;;23.04;27.51;99951.75;6101062;23;20029;-92
2023/06/13 16:30:41;;;;;;;;;;;;;;;;;;;;;
2023/06/13 16:34:25;;;;;;;14.18;3.40;;;;;;;23.03;27.46;99980.03;6150713;23;20032;-92
2023/06/13 16:36:56;;;;;;;39.67;5.07;;;;;;;22.58;27.40;99938.03;6062888;23;20024;-91
2023/06/13 16:47:00;;;;;;;20.98;4.90;;;;;;;22.24;28.67;99928.84;6132618;23;20085;-89
2023/06/13 16:49:30;;;;;;;18.73;4.55;;;;;;;22.06;28.92;99931.34;6075513;23;20014;-91
2023/06/13 16:52:31;;;;;;;14.00;4.05;;;;;;;22.17;28.54;99956.59;6094561;23;20026;-93
2023/06/13 16:58:59;;;;;;;35.35;5.63;;;;;;;21.86;29.47;99950.16;5870656;24;20098;-92
2023/06/13 17:01:53;;;;;;;54.47;5.95;;;;;;;21.83;30.13;99959.25;5868250;24;20060;-92
2023/06/13 17:04:36;;;;;;;20.40;4.35;;;;;;;21.50;30.22;99938.44;5853982;24;20045;-92
2023/06/13 17:07:23;;;;;;;102.30;6.95;;;;;;;21.54;30.55;99955.19;5849093;24;20029;-92
2023/06/13 17:10:01;;;;;;;15.20;4.35;;;;;;;21.43;29.36;99940.28;5847012;24;20219;-91
2023/06/13 17:12:35;;;;;;;13.52;5.20;;;;;;;21.44;29.33;99961.38;5894332;24;20025;-90
2023/06/13 17:15:01;;;;;;;14.32;4.40;;;;;;;21.35;29.22;99950.47;5872881;24;20505;-92
2023/06/13 17:17:39;;;;;;;148.88;9.40;;;;;;;21.31;29.28;99961.50;5897201;24;20032;-90
2023/06/13 17:20:08;;;;;;;95.05;8.48;;;;;;;20.98;30.48;99923.16;5906718;24;20027;-91
2023/06/13 17:22:56;;;;;;;;;;;;;;;21.19;31.19;99981.16;5952781;23;20095;-90
2023/06/13 17:25:31;;;;;;;29.83;5.18;;;;;;;20.52;30.99;99888.91;5974807;23;20003;-91
2023/06/13 17:28:02;;;;;;;20.10;5.28;;;;;;;20.75;31.62;99939.78;6065985;23;20021;-88
2023/06/13 17:30:57;;;;;;;14.32;4.50;;;;;;;20.93;31.23;99973.50;6184099;23;20106;-91
2023/06/13 17:33:24;;;;;;;18.60;5.20;;;;;;;20.35;32.21;99882.59;6157027;23;20016;-92
2023/06/13 17:35:51;;;;;;;19.15;4.95;;;;;;;20.48;32.13;99922.13;6157750;23;20036;-91
2023/06/13 17:38:24;;;;;;;13.88;4.03;;;;;;;20.11;32.01;99869.00;6164035;23;20017;-92
2023/06/13 17:41:01;;;;;;;18.30;4.55;;;;;;;20.10;32.19;99872.94;6132385;23;20017;-90